sensor_id;sensor_type;location;lat;lon;timestamp;P1;durP1;ratioP1;P2;durP2;ratioP2
7334;SDS011;3708;42.632;23.378;2024-02-21T00:00:23;4.10;;;3.65;;
7334;SDS011;3708;42.632;23.378;2024-02-21T00:02:49;3.35;;;2.80;;
7334;SDS011;3708;42.632;23.378;2024-02-21T00:05:15;5.05;;;2.80;;
7334;SDS011;3708;42.632;23.378;2024-02-21T00:07:41;3.38;;;3.05;;
7334;SDS011;3708;42.632;23.378;2024-02-21T00:10:07;2.92;;;2.60;;
7334;SDS011;3708;42.632;23.378;2024-02-21T00:12:33;6.57;;;3.17;;
7334;SDS011;3708;42.632;23.378;2024-02-21T00:14:58;6.15;;;3.05;;
7334;SDS011;3708;42.632;23.378;2024-02-21T00:17:24;1.90;;;1.80;;
7334;SDS011;3708;42.632;23.378;2024-02-21T00:19:51;2.83;;;2.55;;
7334;SDS011;3708;42.632;23.378;2024-02-21T00:22:16;3.35;;;3.05;;
7334;SDS011;3708;42.632;23.378;2024-02-21T00:24:42;3.72;;;3.30;;
7334;SDS011;3708;42.632;23.378;2024-02-21T00:27:07;3.72;;;2.97;;
7334;SDS011;3708;42.632;23.378;2024-02-21T00:29:33;3.95;;;3.63;;
7334;SDS011;3708;42.632;23.378;2024-02-21T00:31:59;2.83;;;2.60;;
7334;SDS011;3708;42.632;23.378;2024-02-21T00:34:25;3.15;;;2.67;;
7334;SDS011;3708;42.632;23.378;2024-02-21T00:36:50;5.15;;;3.35;;
7334;SDS011;3708;42.632;23.378;2024-02-21T00:39:16;5.03;;;3.05;;
7334;SDS011;3708;42.632;23.378;2024-02-21T00:41:42;6.55;;;3.22;;
7334;SDS011;3708;42.632;23.378;2024-02-21T00:44:07;4.85;;;3.33;;
7334;SDS011;3708;42.632;23.378;2024-02-21T00:46:33;3.67;;;2.78;;
7334;SDS011;3708;42.632;23.378;2024-02-21T00:48:58;3.42;;;3.13;;
7334;SDS011;3708;42.632;23.378;2024-02-21T00:51:24;2.80;;;2.47;;
7334;SDS011;3708;42.632;23.378;2024-02-21T00:53:50;4.38;;;2.45;;
7334;SDS011;3708;42.632;23.378;2024-02-21T00:56:16;3.17;;;2.53;;
7334;SDS011;3708;42.632;23.378;2024-02-21T00:58:41;3.33;;;2.85;;
7334;SDS011;3708;42.632;23.378;2024-02-21T01:01:07;3.03;;;2.83;;
7334;SDS011;3708;42.632;23.378;2024-02-21T01:03:32;2.40;;;2.20;;
7334;SDS011;3708;42.632;23.378;2024-02-21T01:05:58;2.50;;;2.33;;
7334;SDS011;3708;42.632;23.378;2024-02-21T01:08:23;2.83;;;2.20;;
7334;SDS011;3708;42.632;23.378;2024-02-21T01:10:49;3.15;;;2.80;;
7334;SDS011;3708;42.632;23.378;2024-02-21T01:13:14;3.22;;;3.03;;
7334;SDS011;3708;42.632;23.378;2024-02-21T01:15:40;2.50;;;2.30;;
7334;SDS011;3708;42.632;23.378;2024-02-21T01:18:05;3.53;;;2.97;;
7334;SDS011;3708;42.632;23.378;2024-02-21T01:20:31;3.15;;;2.72;;
7334;SDS011;3708;42.632;23.378;2024-02-21T01:22:57;4.70;;;3.67;;
7334;SDS011;3708;42.632;23.378;2024-02-21T01:25:22;4.15;;;3.33;;
7334;SDS011;3708;42.632;23.378;2024-02-21T01:27:48;3.42;;;3.13;;
7334;SDS011;3708;42.632;23.378;2024-02-21T01:30:14;2.95;;;2.65;;
7334;SDS011;3708;42.632;23.378;2024-02-21T01:32:39;7.07;;;3.90;;
7334;SDS011;3708;42.632;23.378;2024-02-21T01:35:05;3.25;;;2.83;;
7334;SDS011;3708;42.632;23.378;2024-02-21T01:37:31;3.85;;;2.85;;
7334;SDS011;3708;42.632;23.378;2024-02-21T01:39:56;5.60;;;3.40;;
7334;SDS011;3708;42.632;23.378;2024-02-21T01:42:22;5.18;;;3.60;;
7334;SDS011;3708;42.632;23.378;2024-02-21T01:44:47;4.90;;;3.92;;
7334;SDS011;3708;42.632;23.378;2024-02-21T01:47:13;3.92;;;3.58;;
7334;SDS011;3708;42.632;23.378;2024-02-21T01:49:42;5.80;;;4.10;;
7334;SDS011;3708;42.632;23.378;2024-02-21T01:52:08;5.32;;;3.70;;
7334;SDS011;3708;42.632;23.378;2024-02-21T01:54:35;4.00;;;3.63;;
7334;SDS011;3708;42.632;23.378;2024-02-21T01:57:01;3.65;;;2.85;;
7334;SDS011;3708;42.632;23.378;2024-02-21T01:59:27;5.95;;;3.75;;
7334;SDS011;3708;42.632;23.378;2024-02-21T02:01:53;5.32;;;3.90;;
7334;SDS011;3708;42.632;23.378;2024-02-21T02:04:21;6.20;;;3.92;;
7334;SDS011;3708;42.632;23.378;2024-02-21T02:06:46;3.47;;;3.20;;
7334;SDS011;3708;42.632;23.378;2024-02-21T02:09:15;3.90;;;3.47;;
7334;SDS011;3708;42.632;23.378;2024-02-21T02:11:43;4.75;;;4.28;;
7334;SDS011;3708;42.632;23.378;2024-02-21T02:14:09;6.63;;;3.78;;
7334;SDS011;3708;42.632;23.378;2024-02-21T02:16:34;6.55;;;3.63;;
7334;SDS011;3708;42.632;23.378;2024-02-21T02:19:00;8.15;;;5.75;;
7334;SDS011;3708;42.632;23.378;2024-02-21T02:21:29;5.97;;;3.45;;
7334;SDS011;3708;42.632;23.378;2024-02-21T02:23:57;3.88;;;3.35;;
7334;SDS011;3708;42.632;23.378;2024-02-21T02:26:24;8.32;;;4.13;;
7334;SDS011;3708;42.632;23.378;2024-02-21T02:28:50;9.65;;;5.38;;
7334;SDS011;3708;42.632;23.378;2024-02-21T02:31:15;9.80;;;5.20;;
7334;SDS011;3708;42.632;23.378;2024-02-21T02:33:42;7.00;;;3.80;;
7334;SDS011;3708;42.632;23.378;2024-02-21T02:36:09;6.40;;;5.45;;
7334;SDS011;3708;42.632;23.378;2024-02-21T02:38:35;5.82;;;4.30;;
7334;SDS011;3708;42.632;23.378;2024-02-21T02:41:00;4.78;;;3.60;;
7334;SDS011;3708;42.632;23.378;2024-02-21T02:43:26;6.63;;;4.68;;
7334;SDS011;3708;42.632;23.378;2024-02-21T02:45:51;4.05;;;3.35;;
7334;SDS011;3708;42.632;23.378;2024-02-21T02:48:17;6.78;;;4.68;;
7334;SDS011;3708;42.632;23.378;2024-02-21T02:50:44;9.73;;;6.18;;
7334;SDS011;3708;42.632;23.378;2024-02-21T02:53:11;11.52;;;6.03;;
7334;SDS011;3708;42.632;23.378;2024-02-21T02:55:36;8.82;;;5.78;;
7334;SDS011;3708;42.632;23.378;2024-02-21T02:58:02;7.40;;;4.30;;
7334;SDS011;3708;42.632;23.378;2024-02-21T03:00:28;9.57;;;5.20;;
7334;SDS011;3708;42.632;23.378;2024-02-21T03:02:53;10.50;;;6.60;;
7334;SDS011;3708;42.632;23.378;2024-02-21T03:05:20;10.75;;;7.28;;
7334;SDS011;3708;42.632;23.378;2024-02-21T03:07:47;12.38;;;6.40;;
7334;SDS011;3708;42.632;23.378;2024-02-21T03:10:14;9.77;;;6.15;;
7334;SDS011;3708;42.632;23.378;2024-02-21T03:12:41;7.93;;;5.18;;
7334;SDS011;3708;42.632;23.378;2024-02-21T03:15:07;7.70;;;5.07;;
7334;SDS011;3708;42.632;23.378;2024-02-21T03:17:33;11.40;;;6.78;;
7334;SDS011;3708;42.632;23.378;2024-02-21T03:20:02;7.45;;;5.03;;
7334;SDS011;3708;42.632;23.378;2024-02-21T03:22:31;10.30;;;6.28;;
7334;SDS011;3708;42.632;23.378;2024-02-21T03:24:57;12.25;;;6.25;;
7334;SDS011;3708;42.632;23.378;2024-02-21T03:27:23;10.20;;;5.57;;
7334;SDS011;3708;42.632;23.378;2024-02-21T03:29:48;8.90;;;6.20;;
7334;SDS011;3708;42.632;23.378;2024-02-21T03:32:14;8.60;;;4.95;;
7334;SDS011;3708;42.632;23.378;2024-02-21T03:34:39;10.07;;;6.38;;
7334;SDS011;3708;42.632;23.378;2024-02-21T03:37:05;9.38;;;5.18;;
7334;SDS011;3708;42.632;23.378;2024-02-21T03:39:31;9.20;;;6.00;;
7334;SDS011;3708;42.632;23.378;2024-02-21T03:42:00;10.32;;;5.63;;
7334;SDS011;3708;42.632;23.378;2024-02-21T03:44:29;11.43;;;6.88;;
7334;SDS011;3708;42.632;23.378;2024-02-21T03:47:01;8.20;;;5.03;;
7334;SDS011;3708;42.632;23.378;2024-02-21T03:49:26;8.50;;;6.57;;
7334;SDS011;3708;42.632;23.378;2024-02-21T03:51:52;11.60;;;5.35;;
7334;SDS011;3708;42.632;23.378;2024-02-21T03:54:18;9.68;;;5.78;;
7334;SDS011;3708;42.632;23.378;2024-02-21T03:56:44;10.18;;;6.10;;
7334;SDS011;3708;42.632;23.378;2024-02-21T03:59:09;9.48;;;6.55;;
7334;SDS011;3708;42.632;23.378;2024-02-21T04:01:35;12.07;;;6.13;;
7334;SDS011;3708;42.632;23.378;2024-02-21T04:04:01;9.50;;;5.85;;
7334;SDS011;3708;42.632;23.378;2024-02-21T04:06:27;12.93;;;5.97;;
7334;SDS011;3708;42.632;23.378;2024-02-21T04:08:52;8.40;;;5.68;;
7334;SDS011;3708;42.632;23.378;2024-02-21T04:11:18;10.55;;;5.03;;
7334;SDS011;3708;42.632;23.378;2024-02-21T04:13:44;10.88;;;5.72;;
7334;SDS011;3708;42.632;23.378;2024-02-21T04:16:10;10.32;;;5.95;;
7334;SDS011;3708;42.632;23.378;2024-02-21T04:18:36;9.70;;;6.22;;
7334;SDS011;3708;42.632;23.378;2024-02-21T04:21:02;9.90;;;6.63;;
7334;SDS011;3708;42.632;23.378;2024-02-21T04:23:27;12.20;;;7.35;;
7334;SDS011;3708;42.632;23.378;2024-02-21T04:25:53;6.22;;;3.92;;
7334;SDS011;3708;42.632;23.378;2024-02-21T04:28:19;13.25;;;6.32;;
7334;SDS011;3708;42.632;23.378;2024-02-21T04:30:44;10.98;;;6.88;;
7334;SDS011;3708;42.632;23.378;2024-02-21T04:33:10;10.32;;;5.70;;
7334;SDS011;3708;42.632;23.378;2024-02-21T04:35:36;14.77;;;7.32;;
7334;SDS011;3708;42.632;23.378;2024-02-21T04:38:01;13.63;;;7.03;;
7334;SDS011;3708;42.632;23.378;2024-02-21T04:40:27;11.90;;;6.70;;
7334;SDS011;3708;42.632;23.378;2024-02-21T04:42:53;7.93;;;5.68;;
7334;SDS011;3708;42.632;23.378;2024-02-21T04:45:19;12.25;;;6.45;;
7334;SDS011;3708;42.632;23.378;2024-02-21T04:47:44;12.60;;;8.07;;
7334;SDS011;3708;42.632;23.378;2024-02-21T04:50:10;9.57;;;5.95;;
7334;SDS011;3708;42.632;23.378;2024-02-21T04:52:36;14.32;;;7.22;;
7334;SDS011;3708;42.632;23.378;2024-02-21T04:55:02;16.25;;;8.23;;
7334;SDS011;3708;42.632;23.378;2024-02-21T04:57:27;13.30;;;7.07;;
7334;SDS011;3708;42.632;23.378;2024-02-21T04:59:53;14.18;;;9.00;;
7334;SDS011;3708;42.632;23.378;2024-02-21T05:02:18;14.30;;;8.48;;
7334;SDS011;3708;42.632;23.378;2024-02-21T05:04:47;14.40;;;7.97;;
7334;SDS011;3708;42.632;23.378;2024-02-21T05:07:13;12.75;;;7.97;;
7334;SDS011;3708;42.632;23.378;2024-02-21T05:09:38;12.80;;;7.30;;
7334;SDS011;3708;42.632;23.378;2024-02-21T05:12:04;18.73;;;8.68;;
7334;SDS011;3708;42.632;23.378;2024-02-21T05:14:30;16.25;;;8.07;;
7334;SDS011;3708;42.632;23.378;2024-02-21T05:16:55;13.10;;;6.88;;
7334;SDS011;3708;42.632;23.378;2024-02-21T05:19:21;15.00;;;7.43;;
7334;SDS011;3708;42.632;23.378;2024-02-21T05:21:46;14.45;;;7.65;;
7334;SDS011;3708;42.632;23.378;2024-02-21T05:24:12;16.08;;;7.65;;
7334;SDS011;3708;42.632;23.378;2024-02-21T05:26:37;16.00;;;7.93;;
7334;SDS011;3708;42.632;23.378;2024-02-21T05:29:03;15.00;;;8.30;;
7334;SDS011;3708;42.632;23.378;2024-02-21T05:31:42;16.33;;;8.73;;
7334;SDS011;3708;42.632;23.378;2024-02-21T05:36:46;14.98;;;8.02;;
7334;SDS011;3708;42.632;23.378;2024-02-21T05:39:14;14.60;;;8.18;;
7334;SDS011;3708;42.632;23.378;2024-02-21T05:41:41;16.02;;;8.07;;
7334;SDS011;3708;42.632;23.378;2024-02-21T05:44:07;15.48;;;8.07;;
7334;SDS011;3708;42.632;23.378;2024-02-21T05:46:32;12.30;;;7.60;;
7334;SDS011;3708;42.632;23.378;2024-02-21T05:48:58;19.67;;;8.88;;
7334;SDS011;3708;42.632;23.378;2024-02-21T05:51:23;19.25;;;9.00;;
7334;SDS011;3708;42.632;23.378;2024-02-21T05:53:49;12.07;;;7.95;;
7334;SDS011;3708;42.632;23.378;2024-02-21T05:56:14;15.70;;;8.63;;
7334;SDS011;3708;42.632;23.378;2024-02-21T05:58:40;11.93;;;8.02;;
7334;SDS011;3708;42.632;23.378;2024-02-21T06:01:06;13.80;;;8.80;;
7334;SDS011;3708;42.632;23.378;2024-02-21T06:03:32;18.48;;;8.82;;
7334;SDS011;3708;42.632;23.378;2024-02-21T06:05:59;15.90;;;8.38;;
7334;SDS011;3708;42.632;23.378;2024-02-21T06:08:25;13.70;;;7.93;;
7334;SDS011;3708;42.632;23.378;2024-02-21T06:10:51;15.45;;;9.50;;
7334;SDS011;3708;42.632;23.378;2024-02-21T06:13:20;14.43;;;7.95;;
7334;SDS011;3708;42.632;23.378;2024-02-21T06:15:49;14.20;;;7.75;;
7334;SDS011;3708;42.632;23.378;2024-02-21T06:18:18;12.30;;;8.00;;
7334;SDS011;3708;42.632;23.378;2024-02-21T06:20:45;12.73;;;7.78;;
7334;SDS011;3708;42.632;23.378;2024-02-21T06:23:11;18.33;;;8.75;;
7334;SDS011;3708;42.632;23.378;2024-02-21T06:25:38;19.52;;;8.75;;
7334;SDS011;3708;42.632;23.378;2024-02-21T06:28:04;11.32;;;7.53;;
7334;SDS011;3708;42.632;23.378;2024-02-21T06:30:30;13.20;;;7.70;;
7334;SDS011;3708;42.632;23.378;2024-02-21T06:32:56;17.52;;;9.10;;
7334;SDS011;3708;42.632;23.378;2024-02-21T06:35:21;16.55;;;9.88;;
7334;SDS011;3708;42.632;23.378;2024-02-21T06:37:49;19.67;;;9.18;;
7334;SDS011;3708;42.632;23.378;2024-02-21T06:40:23;17.42;;;8.82;;
7334;SDS011;3708;42.632;23.378;2024-02-21T06:42:52;15.98;;;8.45;;
7334;SDS011;3708;42.632;23.378;2024-02-21T06:45:17;16.35;;;8.98;;
7334;SDS011;3708;42.632;23.378;2024-02-21T06:47:43;16.83;;;9.15;;
7334;SDS011;3708;42.632;23.378;2024-02-21T06:50:09;17.08;;;8.32;;
7334;SDS011;3708;42.632;23.378;2024-02-21T06:52:35;20.13;;;8.73;;
7334;SDS011;3708;42.632;23.378;2024-02-21T06:55:01;16.95;;;8.65;;
7334;SDS011;3708;42.632;23.378;2024-02-21T06:57:28;12.93;;;8.57;;
7334;SDS011;3708;42.632;23.378;2024-02-21T06:59:54;16.27;;;9.05;;
7334;SDS011;3708;42.632;23.378;2024-02-21T07:02:20;16.38;;;8.95;;
7334;SDS011;3708;42.632;23.378;2024-02-21T07:04:45;15.40;;;8.30;;
7334;SDS011;3708;42.632;23.378;2024-02-21T07:07:11;15.05;;;7.90;;
7334;SDS011;3708;42.632;23.378;2024-02-21T07:09:37;16.38;;;8.93;;
7334;SDS011;3708;42.632;23.378;2024-02-21T07:12:03;14.52;;;7.38;;
7334;SDS011;3708;42.632;23.378;2024-02-21T07:14:29;15.25;;;8.45;;
7334;SDS011;3708;42.632;23.378;2024-02-21T07:16:57;19.20;;;9.65;;
7334;SDS011;3708;42.632;23.378;2024-02-21T07:19:22;15.55;;;8.82;;
7334;SDS011;3708;42.632;23.378;2024-02-21T07:21:48;14.60;;;8.43;;
7334;SDS011;3708;42.632;23.378;2024-02-21T07:24:14;12.15;;;7.72;;
7334;SDS011;3708;42.632;23.378;2024-02-21T07:26:43;18.40;;;8.63;;
7334;SDS011;3708;42.632;23.378;2024-02-21T07:29:09;17.70;;;8.80;;
7334;SDS011;3708;42.632;23.378;2024-02-21T07:31:41;23.23;;;10.25;;
7334;SDS011;3708;42.632;23.378;2024-02-21T07:36:33;18.65;;;7.95;;
7334;SDS011;3708;42.632;23.378;2024-02-21T07:38:59;31.80;;;10.63;;
7334;SDS011;3708;42.632;23.378;2024-02-21T07:41:25;18.42;;;9.30;;
7334;SDS011;3708;42.632;23.378;2024-02-21T07:43:50;15.63;;;8.25;;
7334;SDS011;3708;42.632;23.378;2024-02-21T07:46:17;16.52;;;9.25;;
7334;SDS011;3708;42.632;23.378;2024-02-21T07:48:43;18.50;;;9.82;;
7334;SDS011;3708;42.632;23.378;2024-02-21T07:51:10;11.38;;;6.85;;
7334;SDS011;3708;42.632;23.378;2024-02-21T07:53:36;18.55;;;9.07;;
7334;SDS011;3708;42.632;23.378;2024-02-21T07:56:01;7.57;;;5.65;;
7334;SDS011;3708;42.632;23.378;2024-02-21T07:58:27;14.82;;;8.85;;
7334;SDS011;3708;42.632;23.378;2024-02-21T08:00:52;15.55;;;7.25;;
7334;SDS011;3708;42.632;23.378;2024-02-21T08:03:18;14.73;;;8.27;;
7334;SDS011;3708;42.632;23.378;2024-02-21T08:05:43;16.88;;;7.35;;
7334;SDS011;3708;42.632;23.378;2024-02-21T08:08:09;15.27;;;8.45;;
7334;SDS011;3708;42.632;23.378;2024-02-21T08:10:35;12.25;;;6.88;;
7334;SDS011;3708;42.632;23.378;2024-02-21T08:13:00;20.70;;;8.27;;
7334;SDS011;3708;42.632;23.378;2024-02-21T08:15:26;18.83;;;8.73;;
7334;SDS011;3708;42.632;23.378;2024-02-21T08:17:55;20.48;;;8.75;;
7334;SDS011;3708;42.632;23.378;2024-02-21T08:20:28;14.43;;;7.85;;
7334;SDS011;3708;42.632;23.378;2024-02-21T08:22:54;15.95;;;8.43;;
7334;SDS011;3708;42.632;23.378;2024-02-21T08:25:19;20.95;;;10.18;;
7334;SDS011;3708;42.632;23.378;2024-02-21T08:27:45;19.73;;;9.05;;
7334;SDS011;3708;42.632;23.378;2024-02-21T08:30:11;15.20;;;7.60;;
7334;SDS011;3708;42.632;23.378;2024-02-21T08:32:37;18.20;;;8.45;;
7334;SDS011;3708;42.632;23.378;2024-02-21T08:35:02;17.90;;;8.75;;
7334;SDS011;3708;42.632;23.378;2024-02-21T08:37:30;13.45;;;7.68;;
7334;SDS011;3708;42.632;23.378;2024-02-21T08:39:55;15.10;;;8.18;;
7334;SDS011;3708;42.632;23.378;2024-02-21T08:42:21;15.57;;;7.88;;
7334;SDS011;3708;42.632;23.378;2024-02-21T08:44:46;13.73;;;7.63;;
7334;SDS011;3708;42.632;23.378;2024-02-21T08:47:12;11.52;;;7.22;;
7334;SDS011;3708;42.632;23.378;2024-02-21T08:49:38;15.80;;;8.10;;
7334;SDS011;3708;42.632;23.378;2024-02-21T08:52:03;15.18;;;7.25;;
7334;SDS011;3708;42.632;23.378;2024-02-21T08:54:30;13.90;;;8.07;;
7334;SDS011;3708;42.632;23.378;2024-02-21T08:56:57;14.45;;;7.70;;
7334;SDS011;3708;42.632;23.378;2024-02-21T08:59:23;13.82;;;8.10;;
7334;SDS011;3708;42.632;23.378;2024-02-21T09:01:49;18.30;;;8.70;;
7334;SDS011;3708;42.632;23.378;2024-02-21T09:04:17;10.07;;;6.53;;
7334;SDS011;3708;42.632;23.378;2024-02-21T09:06:42;10.90;;;7.28;;
7334;SDS011;3708;42.632;23.378;2024-02-21T09:09:08;15.43;;;8.32;;
7334;SDS011;3708;42.632;23.378;2024-02-21T09:11:35;9.93;;;6.75;;
7334;SDS011;3708;42.632;23.378;2024-02-21T09:14:00;11.93;;;6.70;;
7334;SDS011;3708;42.632;23.378;2024-02-21T09:16:29;5.88;;;5.20;;
7334;SDS011;3708;42.632;23.378;2024-02-21T09:18:56;8.40;;;5.18;;
7334;SDS011;3708;42.632;23.378;2024-02-21T09:21:22;11.15;;;6.40;;
7334;SDS011;3708;42.632;23.378;2024-02-21T09:23:48;10.52;;;7.43;;
7334;SDS011;3708;42.632;23.378;2024-02-21T09:26:13;11.52;;;7.30;;
7334;SDS011;3708;42.632;23.378;2024-02-21T09:28:41;8.45;;;5.90;;
7334;SDS011;3708;42.632;23.378;2024-02-21T09:31:07;10.00;;;6.20;;
7334;SDS011;3708;42.632;23.378;2024-02-21T09:33:32;8.00;;;4.72;;
7334;SDS011;3708;42.632;23.378;2024-02-21T09:35:58;13.23;;;6.70;;
7334;SDS011;3708;42.632;23.378;2024-02-21T09:38:24;9.45;;;5.13;;
7334;SDS011;3708;42.632;23.378;2024-02-21T09:40:58;8.98;;;6.03;;
7334;SDS011;3708;42.632;23.378;2024-02-21T09:43:28;9.43;;;5.88;;
7334;SDS011;3708;42.632;23.378;2024-02-21T09:45:54;20.33;;;8.90;;
7334;SDS011;3708;42.632;23.378;2024-02-21T09:51:02;12.93;;;7.38;;
7334;SDS011;3708;42.632;23.378;2024-02-21T09:53:29;9.93;;;4.60;;
7334;SDS011;3708;42.632;23.378;2024-02-21T09:55:57;14.88;;;8.60;;
7334;SDS011;3708;42.632;23.378;2024-02-21T09:58:23;10.70;;;5.15;;
7334;SDS011;3708;42.632;23.378;2024-02-21T10:00:52;10.10;;;7.07;;
7334;SDS011;3708;42.632;23.378;2024-02-21T10:03:18;10.75;;;6.10;;
7334;SDS011;3708;42.632;23.378;2024-02-21T10:05:47;9.32;;;4.70;;
7334;SDS011;3708;42.632;23.378;2024-02-21T10:08:15;8.50;;;5.95;;
7334;SDS011;3708;42.632;23.378;2024-02-21T10:10:44;9.68;;;6.55;;
7334;SDS011;3708;42.632;23.378;2024-02-21T10:13:10;10.90;;;5.13;;
7334;SDS011;3708;42.632;23.378;2024-02-21T10:15:47;10.48;;;6.60;;
7334;SDS011;3708;42.632;23.378;2024-02-21T10:18:15;11.77;;;7.57;;
7334;SDS011;3708;42.632;23.378;2024-02-21T10:20:43;5.75;;;4.45;;
7334;SDS011;3708;42.632;23.378;2024-02-21T10:23:09;9.68;;;6.38;;
7334;SDS011;3708;42.632;23.378;2024-02-21T10:25:35;13.68;;;5.50;;
7334;SDS011;3708;42.632;23.378;2024-02-21T10:28:06;8.43;;;4.72;;
7334;SDS011;3708;42.632;23.378;2024-02-21T10:30:32;10.35;;;5.57;;
7334;SDS011;3708;42.632;23.378;2024-02-21T10:32:58;10.45;;;5.78;;
7334;SDS011;3708;42.632;23.378;2024-02-21T10:35:30;9.68;;;5.82;;
7334;SDS011;3708;42.632;23.378;2024-02-21T10:37:58;7.78;;;5.95;;
7334;SDS011;3708;42.632;23.378;2024-02-21T10:40:25;8.68;;;5.70;;
7334;SDS011;3708;42.632;23.378;2024-02-21T10:42:56;11.25;;;5.88;;
7334;SDS011;3708;42.632;23.378;2024-02-21T10:45:26;4.75;;;4.25;;
7334;SDS011;3708;42.632;23.378;2024-02-21T10:48:00;8.90;;;5.97;;
7334;SDS011;3708;42.632;23.378;2024-02-21T10:50:33;9.48;;;6.65;;
7334;SDS011;3708;42.632;23.378;2024-02-21T10:53:12;6.40;;;5.57;;
7334;SDS011;3708;42.632;23.378;2024-02-21T10:56:10;10.00;;;5.60;;
7334;SDS011;3708;42.632;23.378;2024-02-21T10:58:37;8.00;;;5.22;;
7334;SDS011;3708;42.632;23.378;2024-02-21T11:01:04;7.68;;;4.97;;
7334;SDS011;3708;42.632;23.378;2024-02-21T11:03:31;4.90;;;3.95;;
7334;SDS011;3708;42.632;23.378;2024-02-21T11:05:57;4.70;;;3.28;;
7334;SDS011;3708;42.632;23.378;2024-02-21T11:08:23;4.30;;;3.33;;
7334;SDS011;3708;42.632;23.378;2024-02-21T11:10:56;6.30;;;5.05;;
7334;SDS011;3708;42.632;23.378;2024-02-21T11:13:31;6.18;;;4.43;;
7334;SDS011;3708;42.632;23.378;2024-02-21T11:16:10;3.95;;;3.60;;
7334;SDS011;3708;42.632;23.378;2024-02-21T11:18:37;7.03;;;3.50;;
7334;SDS011;3708;42.632;23.378;2024-02-21T11:21:03;3.85;;;2.88;;
7334;SDS011;3708;42.632;23.378;2024-02-21T11:23:32;2.95;;;2.38;;
7334;SDS011;3708;42.632;23.378;2024-02-21T11:26:07;4.22;;;3.83;;
7334;SDS011;3708;42.632;23.378;2024-02-21T11:28:44;5.68;;;3.80;;
7334;SDS011;3708;42.632;23.378;2024-02-21T11:31:13;4.07;;;3.40;;
7334;SDS011;3708;42.632;23.378;2024-02-21T11:33:42;5.55;;;3.20;;
7334;SDS011;3708;42.632;23.378;2024-02-21T11:36:09;4.53;;;3.65;;
7334;SDS011;3708;42.632;23.378;2024-02-21T11:38:35;6.28;;;3.53;;
7334;SDS011;3708;42.632;23.378;2024-02-21T11:41:00;3.70;;;2.80;;
7334;SDS011;3708;42.632;23.378;2024-02-21T11:43:26;3.38;;;3.10;;
7334;SDS011;3708;42.632;23.378;2024-02-21T11:46:01;4.30;;;3.17;;
7334;SDS011;3708;42.632;23.378;2024-02-21T11:48:28;4.97;;;3.20;;
7334;SDS011;3708;42.632;23.378;2024-02-21T11:50:54;4.57;;;2.83;;
7334;SDS011;3708;42.632;23.378;2024-02-21T11:53:20;3.85;;;3.55;;
7334;SDS011;3708;42.632;23.378;2024-02-21T11:55:46;3.83;;;3.45;;
7334;SDS011;3708;42.632;23.378;2024-02-21T11:58:12;2.40;;;1.80;;
7334;SDS011;3708;42.632;23.378;2024-02-21T12:00:37;3.47;;;3.15;;
7334;SDS011;3708;42.632;23.378;2024-02-21T12:03:04;6.15;;;3.28;;
7334;SDS011;3708;42.632;23.378;2024-02-21T12:05:30;3.38;;;3.03;;
7334;SDS011;3708;42.632;23.378;2024-02-21T12:07:56;5.07;;;2.80;;
7334;SDS011;3708;42.632;23.378;2024-02-21T12:10:23;8.10;;;5.10;;
7334;SDS011;3708;42.632;23.378;2024-02-21T12:12:51;3.42;;;3.13;;
7334;SDS011;3708;42.632;23.378;2024-02-21T12:15:17;5.40;;;3.30;;
7334;SDS011;3708;42.632;23.378;2024-02-21T12:17:43;3.55;;;2.78;;
7334;SDS011;3708;42.632;23.378;2024-02-21T12:20:09;3.80;;;3.45;;
7334;SDS011;3708;42.632;23.378;2024-02-21T12:22:36;5.03;;;3.40;;
7334;SDS011;3708;42.632;23.378;2024-02-21T12:25:16;7.00;;;3.55;;
7334;SDS011;3708;42.632;23.378;2024-02-21T12:27:47;2.90;;;2.70;;
7334;SDS011;3708;42.632;23.378;2024-02-21T12:30:14;2.85;;;2.67;;
7334;SDS011;3708;42.632;23.378;2024-02-21T12:32:40;4.32;;;3.13;;
7334;SDS011;3708;42.632;23.378;2024-02-21T12:35:06;4.10;;;3.72;;
7334;SDS011;3708;42.632;23.378;2024-02-21T12:37:32;4.60;;;3.30;;
7334;SDS011;3708;42.632;23.378;2024-02-21T12:39:58;4.38;;;2.97;;
7334;SDS011;3708;42.632;23.378;2024-02-21T12:42:24;4.22;;;3.65;;
7334;SDS011;3708;42.632;23.378;2024-02-21T12:44:51;3.40;;;3.15;;
7334;SDS011;3708;42.632;23.378;2024-02-21T12:47:18;8.55;;;3.28;;
7334;SDS011;3708;42.632;23.378;2024-02-21T12:49:45;2.83;;;2.63;;
7334;SDS011;3708;42.632;23.378;2024-02-21T12:52:11;4.00;;;3.20;;
7334;SDS011;3708;42.632;23.378;2024-02-21T12:54:36;4.15;;;2.92;;
7334;SDS011;3708;42.632;23.378;2024-02-21T12:57:02;4.20;;;3.72;;
7334;SDS011;3708;42.632;23.378;2024-02-21T12:59:28;2.50;;;2.28;;
7334;SDS011;3708;42.632;23.378;2024-02-21T13:01:54;4.28;;;2.60;;
7334;SDS011;3708;42.632;23.378;2024-02-21T13:04:20;4.85;;;3.45;;
7334;SDS011;3708;42.632;23.378;2024-02-21T13:06:47;3.92;;;3.00;;
7334;SDS011;3708;42.632;23.378;2024-02-21T13:09:14;3.38;;;2.92;;
7334;SDS011;3708;42.632;23.378;2024-02-21T13:11:39;3.78;;;2.95;;
7334;SDS011;3708;42.632;23.378;2024-02-21T13:14:06;4.15;;;2.88;;
7334;SDS011;3708;42.632;23.378;2024-02-21T13:16:32;3.55;;;3.13;;
7334;SDS011;3708;42.632;23.378;2024-02-21T13:19:04;4.32;;;3.13;;
7334;SDS011;3708;42.632;23.378;2024-02-21T13:21:30;4.88;;;3.45;;
7334;SDS011;3708;42.632;23.378;2024-02-21T13:23:55;4.07;;;3.65;;
7334;SDS011;3708;42.632;23.378;2024-02-21T13:26:22;5.13;;;3.50;;
7334;SDS011;3708;42.632;23.378;2024-02-21T13:28:47;7.50;;;4.75;;
7334;SDS011;3708;42.632;23.378;2024-02-21T13:31:13;5.28;;;4.10;;
7334;SDS011;3708;42.632;23.378;2024-02-21T13:33:39;6.93;;;4.40;;
7334;SDS011;3708;42.632;23.378;2024-02-21T13:36:05;6.25;;;3.25;;
7334;SDS011;3708;42.632;23.378;2024-02-21T13:38:31;4.82;;;3.47;;
7334;SDS011;3708;42.632;23.378;2024-02-21T13:40:56;7.28;;;3.78;;
7334;SDS011;3708;42.632;23.378;2024-02-21T13:43:22;4.20;;;3.80;;
7334;SDS011;3708;42.632;23.378;2024-02-21T13:45:55;4.43;;;3.72;;
7334;SDS011;3708;42.632;23.378;2024-02-21T13:48:25;2.80;;;2.60;;
7334;SDS011;3708;42.632;23.378;2024-02-21T13:53:17;4.93;;;3.95;;
7334;SDS011;3708;42.632;23.378;2024-02-21T13:55:46;4.10;;;3.47;;
7334;SDS011;3708;42.632;23.378;2024-02-21T13:58:12;3.72;;;3.15;;
7334;SDS011;3708;42.632;23.378;2024-02-21T14:00:38;3.95;;;2.83;;
7334;SDS011;3708;42.632;23.378;2024-02-21T14:03:04;3.08;;;2.58;;
7334;SDS011;3708;42.632;23.378;2024-02-21T14:05:30;2.78;;;2.40;;
7334;SDS011;3708;42.632;23.378;2024-02-21T14:07:55;3.95;;;2.05;;
7334;SDS011;3708;42.632;23.378;2024-02-21T14:10:21;3.60;;;2.95;;
7334;SDS011;3708;42.632;23.378;2024-02-21T14:12:47;3.75;;;3.45;;
7334;SDS011;3708;42.632;23.378;2024-02-21T14:15:13;2.83;;;2.58;;
7334;SDS011;3708;42.632;23.378;2024-02-21T14:17:39;5.70;;;3.45;;
7334;SDS011;3708;42.632;23.378;2024-02-21T14:20:06;4.22;;;3.45;;
7334;SDS011;3708;42.632;23.378;2024-02-21T14:22:32;4.50;;;4.10;;
7334;SDS011;3708;42.632;23.378;2024-02-21T14:24:59;4.40;;;3.05;;
7334;SDS011;3708;42.632;23.378;2024-02-21T14:27:25;5.25;;;3.00;;
7334;SDS011;3708;42.632;23.378;2024-02-21T14:29:51;5.93;;;4.10;;
7334;SDS011;3708;42.632;23.378;2024-02-21T14:32:16;4.78;;;3.67;;
7334;SDS011;3708;42.632;23.378;2024-02-21T14:34:42;5.72;;;2.95;;
7334;SDS011;3708;42.632;23.378;2024-02-21T14:37:08;7.18;;;3.63;;
7334;SDS011;3708;42.632;23.378;2024-02-21T14:39:33;10.02;;;3.97;;
7334;SDS011;3708;42.632;23.378;2024-02-21T14:42:00;6.53;;;3.45;;
7334;SDS011;3708;42.632;23.378;2024-02-21T14:44:26;3.47;;;3.15;;
7334;SDS011;3708;42.632;23.378;2024-02-21T14:46:52;3.00;;;2.47;;
7334;SDS011;3708;42.632;23.378;2024-02-21T14:49:18;6.10;;;3.40;;
7334;SDS011;3708;42.632;23.378;2024-02-21T14:51:44;3.03;;;2.78;;
7334;SDS011;3708;42.632;23.378;2024-02-21T14:54:10;3.35;;;2.97;;
7334;SDS011;3708;42.632;23.378;2024-02-21T14:56:35;4.25;;;2.92;;
7334;SDS011;3708;42.632;23.378;2024-02-21T14:59:01;3.42;;;3.10;;
7334;SDS011;3708;42.632;23.378;2024-02-21T15:01:27;5.10;;;4.43;;